Time;durP1;ratioP1;P1;durP2;ratioP2;P2;SDS_P1;SDS_P2;PMS_P1;PMS_P2;Temp;Humidity;BMP_temperature;BMP_pressure;BME280_temperature;BME280_humidity;BME280_pressure;Samples;Min_cycle;Max_cycle;Signal;HPM_P1;HPM_P2
2021/04/11 00:02:16;;;;;;;;;;;;;;;;;;5039120;28;19905;-59
2021/04/11 00:04:42;;;;;;;;;;;;;;;;;;5051825;28;20011;-60
2021/04/11 00:07:08;;;;;;;;;;;;;;;;;;5052132;28;19915;-59
2021/04/11 00:09:34;;;;;;;;;;;;;;;;;;5052966;28;19927;-59
2021/04/11 00:12:00;;;;;;;;;;;;;;;;;;5051822;28;20370;-59
2021/04/11 00:14:26;;;;;;;;;;;;;;;;;;5052351;28;19997;-59
2021/04/11 00:16:52;;;;;;;;;;;;;;;;;;5052242;28;19950;-59
2021/04/11 00:19:18;;;;;;;;;;;;;;;;;;5051246;28;19958;-59
2021/04/11 00:21:44;;;;;;;;;;;;;;;;;;5032361;28;19905;-59
2021/04/11 00:24:10;;;;;;;;;;;;;;;;;;5036499;28;19917;-59
2021/04/11 00:26:36;;;;;;;;;;;;;;;;;;5044642;28;20424;-59
2021/04/11 00:29:04;;;;;;;;;;;;;;;;;;5051710;28;20414;-58
2021/04/11 00:31:30;;;;;;;;;;;;;;;;;;5052170;28;19991;-59
2021/04/11 00:33:56;;;;;;;;;;;;;;;;;;5051949;28;20407;-60
2021/04/11 00:36:22;;;;;;;;;;;;;;;;;;5050193;28;20267;-59
2021/04/11 00:38:48;;;;;;;;;;;;;;;;;;5039098;28;19916;-60
2021/04/11 00:41:14;;;;;;;;;;;;;;;;;;5034269;28;19916;-59
2021/04/11 00:43:40;;;;;;;;;;;;;;;;;;5051462;28;19970;-59
2021/04/11 00:46:06;;;;;;;;;;;;;;;;;;5052233;28;19904;-60
2021/04/11 00:48:32;;;;;;;;;;;;;;;;;;5051392;28;19956;-59
2021/04/11 00:50:58;;;;;;;;;;;;;;;;;;5051562;28;19916;-60
2021/04/11 00:53:24;;;;;;;;;;;;;;;;;;5050560;28;19912;-59
2021/04/11 00:55:50;;;;;;;;;;;;;;;;;;5039133;28;20266;-59
2021/04/11 00:58:16;;;;;;;;;;;;;;;;;;5054960;28;19905;-60
2021/04/11 01:00:42;;;;;;;;;;;;;;;;;;5049857;28;20381;-58
2021/04/11 01:03:08;;;;;;;;;;;;;;;;;;5046953;28;19920;-62
2021/04/11 01:05:33;;;;;;;;;;;;;;;;;;5057662;28;19912;-63
2021/04/11 01:07:59;;;;;;;;;;;;;;;;;;5057585;28;20012;-63
2021/04/11 01:10:25;;;;;;;;;;;;;;;;;;5039414;28;20333;-69
2021/04/11 01:12:51;;;;;;;;;;;;;;;;;;5057480;28;20370;-67
2021/04/11 01:15:17;;;;;;;;;;;;;;;;;;5056902;28;19904;-61
2021/04/11 01:17:43;;;;;;;;;;;;;;;;;;5057560;28;19912;-61
2021/04/11 01:20:09;;;;;;;;;;;;;;;;;;5035439;28;19917;-61
2021/04/11 01:22:35;;;;;;;;;;;;;;;;;;5050908;28;19995;-59
2021/04/11 01:25:01;;;;;;;;;;;;;;;;;;5046165;28;19995;-59
2021/04/11 01:27:27;;;;;;;;;;;;;;;;;;5054029;28;20067;-59
2021/04/11 01:29:52;;;;;;;;;;;;;;;;;;5041611;28;19963;-59
2021/04/11 01:32:18;;;;;;;;;;;;;;;;;;5054841;28;19940;-59
2021/04/11 01:34:44;;;;;;;;;;;;;;;;;;5055224;28;19936;-59
2021/04/11 01:37:10;;;;;;;;;;;;;;;;;;5053623;28;19943;-59
2021/04/11 01:39:36;;;;;;;;;;;;;;;;;;5054548;28;19952;-59
2021/04/11 01:42:02;;;;;;;;;;;;;;;;;;5054639;28;20375;-59
2021/04/11 01:44:28;;;;;;;;;;;;;;;;;;5054326;28;20366;-59
2021/04/11 01:46:54;;;;;;;;;;;;;;;;;;5054490;28;20475;-59
2021/04/11 01:49:20;;;;;;;;;;;;;;;;;;5054340;28;19924;-59
2021/04/11 01:51:46;;;;;;;;;;;;;;;;;;5054790;28;20438;-59
2021/04/11 01:54:12;;;;;;;;;;;;;;;;;;5054195;28;20259;-59
2021/04/11 01:56:38;;;;;;;;;;;;;;;;;;5054556;28;19912;-59
2021/04/11 01:59:04;;;;;;;;;;;;;;;;;;5039857;28;19905;-58
2021/04/11 02:01:30;;;;;;;;;;;;;;;;;;5036773;28;19941;-58
2021/04/11 02:03:55;;;;;;;;;;;;;;;;;;5054020;28;19966;-58
2021/04/11 02:06:21;;;;;;;;;;;;;;;;;;5054279;28;19947;-61
2021/04/11 02:08:47;;;;;;;;;;;;;;;;;;5052617;28;19908;-60
2021/04/11 02:11:13;;;;;;;;;;;;;;;;;;5051908;28;19905;-60
2021/04/11 02:13:39;;;;;;;;;;;;;;;;;;5044757;28;19957;-59
2021/04/11 02:16:05;;;;;;;;;;;;;;;;;;5043114;28;19992;-59
2021/04/11 02:18:31;;;;;;;;;;;;;;;;;;5039221;28;20012;-59
2021/04/11 02:20:57;;;;;;;;;;;;;;;;;;5034371;28;19912;-59
2021/04/11 02:23:23;;;;;;;;;;;;;;;;;;5034193;28;19913;-59
2021/04/11 02:25:49;;;;;;;;;;;;;;;;;;5047538;28;20278;-58
2021/04/11 02:28:15;;;;;;;;;;;;;;;;;;5034051;28;20339;-59
2021/04/11 02:30:40;;;;;;;;;;;;;;;;;;5033527;28;20468;-59
2021/04/11 02:33:06;;;;;;;;;;;;;;;;;;5034062;28;19905;-58
2021/04/11 02:35:32;;;;;;;;;;;;;;;;;;5033586;28;20458;-59
2021/04/11 02:37:58;;;;;;;;;;;;;;;;;;5033702;28;19909;-59
2021/04/11 02:40:24;;;;;;;;;;;;;;;;;;5033478;28;19912;-59
2021/04/11 02:42:50;;;;;;;;;;;;;;;;;;5047577;28;19921;-59
2021/04/11 02:45:16;;;;;;;;;;;;;;;;;;5033287;28;19905;-59
2021/04/11 02:47:42;;;;;;;;;;;;;;;;;;5033334;28;19905;-58
2021/04/11 02:50:08;;;;;;;;;;;;;;;;;;5033135;28;20450;-60
2021/04/11 02:52:34;;;;;;;;;;;;;;;;;;5033392;28;19958;-59
2021/04/11 02:55:00;;;;;;;;;;;;;;;;;;5033527;28;20343;-59
2021/04/11 02:57:26;;;;;;;;;;;;;;;;;;5033263;28;19905;-59
2021/04/11 02:59:52;;;;;;;;;;;;;;;;;;5032825;28;19915;-59
2021/04/11 03:02:18;;;;;;;;;;;;;;;;;;5033217;28;19931;-59
2021/04/11 03:04:43;;;;;;;;;;;;;;;;;;5033226;28;20007;-60
2021/04/11 03:07:09;;;;;;;;;;;;;;;;;;5033131;28;20020;-60
2021/04/11 03:09:35;;;;;;;;;;;;;;;;;;5033125;28;19905;-61
2021/04/11 03:12:01;;;;;;;;;;;;;;;;;;5032626;28;20271;-60
2021/04/11 03:14:27;;;;;;;;;;;;;;;;;;5032739;28;20247;-60
2021/04/11 03:16:53;;;;;;;;;;;;;;;;;;5046974;28;20412;-60
2021/04/11 03:19:19;;;;;;;;;;;;;;;;;;5032688;28;19921;-60
2021/04/11 03:21:45;;;;;;;;;;;;;;;;;;5033157;28;19987;-59
2021/04/11 03:24:11;;;;;;;;;;;;;;;;;;5032628;28;19923;-58
2021/04/11 03:26:37;;;;;;;;;;;;;;;;;;5032873;28;19905;-61
2021/04/11 03:29:03;;;;;;;;;;;;;;;;;;5032203;28;19912;-60
2021/04/11 03:31:29;;;;;;;;;;;;;;;;;;5015286;28;20343;-59
2021/04/11 03:33:55;;;;;;;;;;;;;;;;;;5031498;28;19904;-59
2021/04/11 03:36:20;;;;;;;;;;;;;;;;;;5032974;28;19959;-59
2021/04/11 03:38:46;;;;;;;;;;;;;;;;;;5032194;28;19909;-62
2021/04/11 03:41:12;;;;;;;;;;;;;;;;;;5032357;28;19912;-59
2021/04/11 03:43:38;;;;;;;;;;;;;;;;;;5032423;28;20421;-59
2021/04/11 03:46:04;;;;;;;;;;;;;;;;;;5032540;28;19905;-59
2021/04/11 03:48:30;;;;;;;;;;;;;;;;;;5032456;28;19905;-59
2021/04/11 03:50:56;;;;;;;;;;;;;;;;;;5032003;28;19923;-59
2021/04/11 03:53:22;;;;;;;;;;;;;;;;;;5032489;28;19912;-58
2021/04/11 03:55:48;;;;;;;;;;;;;;;;;;5032332;28;19909;-59
2021/04/11 03:58:14;;;;;;;;;;;;;;;;;;5014654;28;19909;-59
2021/04/11 04:00:39;;;;;;;;;;;;;;;;;;5046130;28;20008;-59
2021/04/11 04:03:05;;;;;;;;;;;;;;;;;;5032703;28;20012;-59
2021/04/11 04:05:31;;;;;;;;;;;;;;;;;;5032115;28;20007;-59
2021/04/11 04:07:57;;;;;;;;;;;;;;;;;;5032609;28;20457;-59
2021/04/11 04:10:23;;;;;;;;;;;;;;;;;;5032377;28;20311;-59
2021/04/11 04:12:49;;;;;;;;;;;;;;;;;;5032176;28;19918;-58
2021/04/11 04:15:15;;;;;;;;;;;;;;;;;;5032370;28;19914;-59
2021/04/11 04:17:41;;;;;;;;;;;;;;;;;;5031781;28;19909;-59
2021/04/11 04:20:07;;;;;;;;;;;;;;;;;;5032645;28;19913;-58
2021/04/11 04:22:33;;;;;;;;;;;;;;;;;;5034722;28;20007;-59
2021/04/11 04:24:59;;;;;;;;;;;;;;;;;;5043594;28;20020;-59
2021/04/11 04:27:25;;;;;;;;;;;;;;;;;;5031753;28;20379;-59
2021/04/11 04:29:51;;;;;;;;;;;;;;;;;;5032025;28;19939;-59
2021/04/11 04:32:17;;;;;;;;;;;;;;;;;;5033707;28;19963;-59
2021/04/11 04:34:43;;;;;;;;;;;;;;;;;;5035973;28;19941;-60
2021/04/11 04:37:09;;;;;;;;;;;;;;;;;;5036322;28;19948;-60
2021/04/11 04:39:35;;;;;;;;;;;;;;;;;;5035726;28;20367;-59
2021/04/11 04:42:00;;;;;;;;;;;;;;;;;;5036172;28;19905;-60
2021/04/11 04:44:28;;;;;;;;;;;;;;;;;;5035737;28;19965;-59
2021/04/11 04:46:54;;;;;;;;;;;;;;;;;;5042374;28;19904;-59
2021/04/11 04:49:19;;;;;;;;;;;;;;;;;;5042869;28;19987;-59
2021/04/11 04:51:45;;;;;;;;;;;;;;;;;;5035811;28;19904;-59
2021/04/11 04:54:11;;;;;;;;;;;;;;;;;;5035548;28;20347;-59
2021/04/11 04:56:37;;;;;;;;;;;;;;;;;;5035800;28;19958;-59
2021/04/11 04:59:03;;;;;;;;;;;;;;;;;;5035350;28;19905;-59
2021/04/11 05:01:29;;;;;;;;;;;;;;;;;;5035163;28;20003;-59
2021/04/11 05:03:55;;;;;;;;;;;;;;;;;;5035232;28;19974;-59
2021/04/11 05:06:21;;;;;;;;;;;;;;;;;;5034933;28;19990;-63
2021/04/11 05:08:47;;;;;;;;;;;;;;;;;;5054231;28;19942;-58
2021/04/11 05:11:13;;;;;;;;;;;;;;;;;;5055017;28;19952;-58
2021/04/11 05:13:39;;;;;;;;;;;;;;;;;;5055220;28;20400;-59
2021/04/11 05:16:05;;;;;;;;;;;;;;;;;;5054874;28;19999;-59
2021/04/11 05:18:31;;;;;;;;;;;;;;;;;;5055058;28;19985;-59
2021/04/11 05:20:57;;;;;;;;;;;;;;;;;;5055263;28;19956;-59
2021/04/11 05:23:23;;;;;;;;;;;;;;;;;;5054580;28;20329;-59
2021/04/11 05:25:49;;;;;;;;;;;;;;;;;;5054819;28;19959;-59
2021/04/11 05:28:15;;;;;;;;;;;;;;;;;;5054988;28;19904;-58
2021/04/11 05:30:41;;;;;;;;;;;;;;;;;;5054383;28;19959;-58
2021/04/11 05:33:07;;;;;;;;;;;;;;;;;;5054966;28;20357;-59
2021/04/11 05:35:32;;;;;;;;;;;;;;;;;;5054816;28;19909;-58
2021/04/11 05:37:58;;;;;;;;;;;;;;;;;;5054594;28;19927;-58
2021/04/11 05:40:24;;;;;;;;;;;;;;;;;;5054843;28;19905;-59
2021/04/11 05:42:50;;;;;;;;;;;;;;;;;;5055007;28;19916;-59
2021/04/11 05:45:16;;;;;;;;;;;;;;;;;;5055041;28;20267;-58
2021/04/11 05:47:42;;;;;;;;;;;;;;;;;;5037670;28;19905;-58
2021/04/11 05:50:08;;;;;;;;;;;;;;;;;;5055178;28;19927;-60
2021/04/11 05:52:34;;;;;;;;;;;;;;;;;;5055346;28;19905;-59
2021/04/11 05:55:00;;;;;;;;;;;;;;;;;;5055270;28;20003;-59
2021/04/11 05:57:26;;;;;;;;;;;;;;;;;;5040388;28;19999;-57
2021/04/11 05:59:52;;;;;;;;;;;;;;;;;;5054535;28;20390;-58
2021/04/11 06:02:18;;;;;;;;;;;;;;;;;;5054523;28;19948;-58
2021/04/11 06:04:44;;;;;;;;;;;;;;;;;;5054006;28;19982;-58
2021/04/11 06:07:10;;;;;;;;;;;;;;;;;;5054570;28;19913;-59
2021/04/11 06:09:36;;;;;;;;;;;;;;;;;;5053652;28;19950;-58
2021/04/11 06:12:01;;;;;;;;;;;;;;;;;;5054464;28;20290;-58
2021/04/11 06:14:27;;;;;;;;;;;;;;;;;;5053897;28;20306;-60
2021/04/11 06:16:53;;;;;;;;;;;;;;;;;;5054415;28;19904;-58
2021/04/11 06:19:19;;;;;;;;;;;;;;;;;;5053677;28;20306;-58
2021/04/11 06:21:45;;;;;;;;;;;;;;;;;;5054379;28;20331;-60
2021/04/11 06:24:11;;;;;;;;;;;;;;;;;;5053661;28;19919;-59
2021/04/11 06:26:37;;;;;;;;;;;;;;;;;;5053879;28;20404;-59
2021/04/11 06:29:03;;;;;;;;;;;;;;;;;;5053726;28;19905;-59
2021/04/11 06:31:29;;;;;;;;;;;;;;;;;;5041353;28;20310;-59
2021/04/11 06:33:55;;;;;;;;;;;;;;;;;;5053683;28;20264;-59
2021/04/11 06:36:21;;;;;;;;;;;;;;;;;;5042440;28;19920;-59
2021/04/11 06:38:46;;;;;;;;;;;;;;;;;;5047042;28;19908;-59
2021/04/11 06:41:12;;;;;;;;;;;;;;;;;;5046663;28;19915;-59
2021/04/11 06:43:38;;;;;;;;;;;;;;;;;;5053384;28;19913;-59
2021/04/11 06:46:04;;;;;;;;;;;;;;;;;;5053100;28;20319;-59
2021/04/11 06:48:30;;;;;;;;;;;;;;;;;;5053019;28;19952;-59
2021/04/11 06:50:56;;;;;;;;;;;;;;;;;;5053190;28;19960;-59
2021/04/11 06:53:22;;;;;;;;;;;;;;;;;;5053398;28;19908;-59
2021/04/11 06:55:48;;;;;;;;;;;;;;;;;;5052721;28;19905;-59
2021/04/11 06:58:14;;;;;;;;;;;;;;;;;;5053060;28;19905;-59
2021/04/11 07:00:40;;;;;;;;;;;;;;;;;;5045399;28;20003;-59
2021/04/11 07:03:06;;;;;;;;;;;;;;;;;;5043097;28;20016;-59
2021/04/11 07:05:32;;;;;;;;;;;;;;;;;;5052909;28;19923;-58
2021/04/11 07:07:57;;;;;;;;;;;;;;;;;;5045999;28;20298;-59
2021/04/11 07:10:23;;;;;;;;;;;;;;;;;;5052703;28;19908;-59
2021/04/11 07:12:49;;;;;;;;;;;;;;;;;;5052916;28;19915;-59
2021/04/11 07:15:15;;;;;;;;;;;;;;;;;;5053325;28;19909;-61
2021/04/11 07:17:41;;;;;;;;;;;;;;;;;;5052499;28;19912;-60
2021/04/11 07:20:07;;;;;;;;;;;;;;;;;;5052794;28;20335;-60
2021/04/11 07:22:33;;;;;;;;;;;;;;;;;;5053031;28;19911;-62
2021/04/11 07:24:59;;;;;;;;;;;;;;;;;;5052523;28;19909;-62
2021/04/11 07:27:26;;;;;;;;;;;;;;;;;;5051777;28;19996;-62
2021/04/11 07:29:52;;;;;;;;;;;;;;;;;;5052390;28;19905;-60
2021/04/11 07:32:18;;;;;;;;;;;;;;;;;;5052370;28;19904;-63
2021/04/11 07:34:44;;;;;;;;;;;;;;;;;;5052268;28;20027;-61
2021/04/11 07:37:10;;;;;;;;;;;;;;;;;;5052930;28;20003;-61
2021/04/11 07:39:35;;;;;;;;;;;;;;;;;;5052252;28;20008;-61
2021/04/11 07:42:01;;;;;;;;;;;;;;;;;;5052598;28;19944;-60
2021/04/11 07:44:27;;;;;;;;;;;;;;;;;;5052056;28;20392;-62
2021/04/11 07:46:53;;;;;;;;;;;;;;;;;;5052742;28;20313;-61
2021/04/11 07:49:19;;;;;;;;;;;;;;;;;;5051926;28;19917;-60
2021/04/11 07:51:45;;;;;;;;;;;;;;;;;;5046359;28;19905;-67
2021/04/11 07:54:11;;;;;;;;;;;;;;;;;;5044640;28;19911;-59
2021/04/11 07:56:37;;;;;;;;;;;;;;;;;;5030485;28;19959;-62
2021/04/11 07:59:03;;;;;;;;;;;;;;;;;;5042773;28;19996;-62
2021/04/11 08:01:29;;;;;;;;;;;;;;;;;;5052029;28;20366;-62
2021/04/11 08:03:55;;;;;;;;;;;;;;;;;;5052016;28;20288;-62
2021/04/11 08:06:21;;;;;;;;;;;;;;;;;;5052321;28;19905;-62
2021/04/11 08:08:46;;;;;;;;;;;;;;;;;;5031845;28;19975;-62
2021/04/11 08:11:12;;;;;;;;;;;;;;;;;;5056129;28;19909;-65
2021/04/11 08:13:38;;;;;;;;;;;;;;;;;;5056356;28;20258;-64
2021/04/11 08:16:04;;;;;;;;;;;;;;;;;;5056299;28;20372;-65
2021/04/11 08:18:30;;;;;;;;;;;;;;;;;;5055769;28;19905;-66
2021/04/11 08:20:56;;;;;;;;;;;;;;;;;;5055503;28;19908;-67
2021/04/11 08:23:22;;;;;;;;;;;;;;;;;;5056059;28;19916;-65
2021/04/11 08:25:48;;;;;;;;;;;;;;;;;;5056254;28;19905;-65
2021/04/11 08:28:14;;;;;;;;;;;;;;;;;;5055732;28;19905;-65
2021/04/11 08:30:40;;;;;;;;;;;;;;;;;;5056122;28;19908;-64
2021/04/11 08:33:06;;;;;;;;;;;;;;;;;;5056300;28;19905;-65
2021/04/11 08:35:32;;;;;;;;;;;;;;;;;;5046437;28;19955;-64
2021/04/11 08:37:57;;;;;;;;;;;;;;;;;;5051419;28;19967;-64
2021/04/11 08:40:23;;;;;;;;;;;;;;;;;;5055984;28;20342;-65
2021/04/11 08:42:49;;;;;;;;;;;;;;;;;;5055314;28;20346;-66
2021/04/11 08:45:15;;;;;;;;;;;;;;;;;;5055479;28;19909;-65
2021/04/11 08:47:41;;;;;;;;;;;;;;;;;;5056675;28;19916;-65
2021/04/11 08:50:07;;;;;;;;;;;;;;;;;;5054917;28;19928;-68
2021/04/11 08:52:33;;;;;;;;;;;;;;;;;;5054698;28;20282;-65
2021/04/11 08:54:59;;;;;;;;;;;;;;;;;;5054134;28;19931;-65
2021/04/11 08:57:25;;;;;;;;;;;;;;;;;;5055237;28;19904;-64
2021/04/11 08:59:51;;;;;;;;;;;;;;;;;;5054822;28;20316;-65
2021/04/11 09:02:17;;;;;;;;;;;;;;;;;;5052363;28;19920;-64
2021/04/11 09:04:43;;;;;;;;;;;;;;;;;;5054586;28;20023;-66
2021/04/11 09:07:09;;;;;;;;;;;;;;;;;;5053493;28;20315;-67
2021/04/11 09:09:35;;;;;;;;;;;;;;;;;;5053604;28;20011;-63
2021/04/11 09:12:00;;;;;;;;;;;;;;;;;;5035689;28;20343;-65
2021/04/11 09:14:26;;;;;;;;;;;;;;;;;;5054797;28;19927;-65
2021/04/11 09:16:52;;;;;;;;;;;;;;;;;;5053627;28;20549;-65
2021/04/11 09:19:18;;;;;;;;;;;;;;;;;;5050062;28;20007;-65
2021/04/11 09:21:44;;;;;;;;;;;;;;;;;;5039781;28;19959;-65
2021/04/11 09:24:10;;;;;;;;;;;;;;;;;;5042515;28;19913;-66
2021/04/11 09:26:36;;;;;;;;;;;;;;;;;;5039440;28;19916;-64
2021/04/11 09:29:02;;;;;;;;;;;;;;;;;;5051598;28;20267;-66
2021/04/11 09:31:28;;;;;;;;;;;;;;;;;;5054148;28;20247;-65
2021/04/11 09:33:54;;;;;;;;;;;;;;;;;;5054100;28;20339;-64
2021/04/11 09:36:20;;;;;;;;;;;;;;;;;;5053962;28;19909;-64
2021/04/11 09:38:46;;;;;;;;;;;;;;;;;;5054104;28;19974;-64
2021/04/11 09:41:12;;;;;;;;;;;;;;;;;;5051630;28;19912;-64
2021/04/11 09:43:38;;;;;;;;;;;;;;;;;;5053919;28;19966;-63
2021/04/11 09:46:04;;;;;;;;;;;;;;;;;;5052873;28;19905;-64
2021/04/11 09:48:29;;;;;;;;;;;;;;;;;;5052848;28;19983;-67
2021/04/11 09:50:55;;;;;;;;;;;;;;;;;;5053634;28;19924;-65
2021/04/11 09:53:21;;;;;;;;;;;;;;;;;;5050838;28;19908;-65
2021/04/11 09:55:47;;;;;;;;;;;;;;;;;;5051341;28;19912;-65
2021/04/11 09:58:13;;;;;;;;;;;;;;;;;;5051338;28;19913;-64
2021/04/11 10:00:39;;;;;;;;;;;;;;;;;;5053729;28;20519;-64
2021/04/11 10:03:05;;;;;;;;;;;;;;;;;;5052008;28;19958;-65
2021/04/11 10:05:31;;;;;;;;;;;;;;;;;;5052130;28;19935;-66
2021/04/11 10:07:57;;;;;;;;;;;;;;;;;;5050469;28;19955;-63
2021/04/11 10:10:23;;;;;;;;;;;;;;;;;;5053040;28;19973;-65
2021/04/11 10:12:49;;;;;;;;;;;;;;;;;;5053810;28;19927;-63
2021/04/11 10:15:15;;;;;;;;;;;;;;;;;;5048502;28;19995;-65
2021/04/11 10:17:41;;;;;;;;;;;;;;;;;;5054246;28;20050;-65
2021/04/11 10:20:06;;;;;;;;;;;;;;;;;;5054163;28;19956;-64
2021/04/11 10:22:32;;;;;;;;;;;;;;;;;;5054049;28;19952;-66
2021/04/11 10:24:58;;;;;;;;;;;;;;;;;;5055728;28;20457;-68
2021/04/11 10:27:24;;;;;;;;;;;;;;;;;;5049813;28;19958;-66
2021/04/11 10:29:50;;;;;;;;;;;;;;;;;;5045479;28;19916;-64
2021/04/11 10:32:18;;;;;;;;;;;;;;;;;;5051354;28;19909;-65
2021/04/11 10:34:44;;;;;;;;;;;;;;;;;;5044714;28;19936;-69
2021/04/11 10:37:10;;;;;;;;;;;;;;;;;;5054991;28;19962;-65
2021/04/11 10:39:36;;;;;;;;;;;;;;;;;;5057237;28;19905;-65
2021/04/11 10:42:02;;;;;;;;;;;;;;;;;;5056081;28;20243;-72
2021/04/11 10:44:28;;;;;;;;;;;;;;;;;;5054799;28;19912;-65
2021/04/11 10:46:54;;;;;;;;;;;;;;;;;;5041568;28;19912;-66
2021/04/11 10:49:20;;;;;;;;;;;;;;;;;;5042562;28;20275;-65
2021/04/11 10:51:46;;;;;;;;;;;;;;;;;;5043196;28;20010;-66
2021/04/11 10:54:12;;;;;;;;;;;;;;;;;;5048311;28;19948;-65
2021/04/11 10:56:37;;;;;;;;;;;;;;;;;;5053122;28;19930;-64
2021/04/11 10:59:03;;;;;;;;;;;;;;;;;;5053091;28;19996;-64
2021/04/11 11:01:29;;;;;;;;;;;;;;;;;;5053127;28;20008;-63
2021/04/11 11:03:55;;;;;;;;;;;;;;;;;;5052361;28;19962;-64
2021/04/11 11:06:21;;;;;;;;;;;;;;;;;;5047090;28;19912;-65
2021/04/11 11:08:47;;;;;;;;;;;;;;;;;;5031574;28;20359;-65
2021/04/11 11:11:13;;;;;;;;;;;;;;;;;;5033321;28;19909;-65
2021/04/11 11:13:39;;;;;;;;;;;;;;;;;;5032943;28;19916;-65
2021/04/11 11:16:05;;;;;;;;;;;;;;;;;;5032885;28;19905;-65
2021/04/11 11:18:31;;;;;;;;;;;;;;;;;;5032294;28;19905;-66
2021/04/11 11:20:57;;;;;;;;;;;;;;;;;;5033079;28;19909;-63
2021/04/11 11:23:23;;;;;;;;;;;;;;;;;;5032637;28;19960;-63
2021/04/11 11:25:49;;;;;;;;;;;;;;;;;;5032247;28;19955;-64
2021/04/11 11:28:14;;;;;;;;;;;;;;;;;;5032905;28;19905;-63
2021/04/11 11:30:40;;;;;;;;;;;;;;;;;;5032653;28;19911;-63
2021/04/11 11:33:06;;;;;;;;;;;;;;;;;;5032822;28;19919;-63
2021/04/11 11:35:32;;;;;;;;;;;;;;;;;;5027263;28;20272;-62
2021/04/11 11:37:58;;;;;;;;;;;;;;;;;;5033832;28;19905;-63
2021/04/11 11:40:24;;;;;;;;;;;;;;;;;;5032431;28;19912;-62
2021/04/11 11:42:50;;;;;;;;;;;;;;;;;;5041762;28;19908;-64
2021/04/11 11:45:16;;;;;;;;;;;;;;;;;;5032282;28;19905;-63
2021/04/11 11:47:42;;;;;;;;;;;;;;;;;;5032694;28;19912;-63
2021/04/11 11:50:08;;;;;;;;;;;;;;;;;;5031858;28;20015;-63
2021/04/11 11:52:34;;;;;;;;;;;;;;;;;;5031976;28;19976;-65
2021/04/11 11:55:00;;;;;;;;;;;;;;;;;;5014249;28;19919;-64
2021/04/11 11:57:26;;;;;;;;;;;;;;;;;;5032228;28;20326;-63
2021/04/11 11:59:52;;;;;;;;;;;;;;;;;;5031750;28;19905;-64
2021/04/11 12:02:17;;;;;;;;;;;;;;;;;;5032213;28;19912;-65
2021/04/11 12:04:43;;;;;;;;;;;;;;;;;;5032006;28;19942;-63
2021/04/11 12:07:09;;;;;;;;;;;;;;;;;;5032166;28;19913;-63
2021/04/11 12:09:35;;;;;;;;;;;;;;;;;;5031926;28;19905;-65
2021/04/11 12:12:01;;;;;;;;;;;;;;;;;;5032134;28;19959;-65
2021/04/11 12:14:27;;;;;;;;;;;;;;;;;;5032290;28;19951;-65
2021/04/11 12:16:53;;;;;;;;;;;;;;;;;;5031843;28;19905;-64
2021/04/11 12:19:19;;;;;;;;;;;;;;;;;;5032003;28;19909;-64
2021/04/11 12:21:45;;;;;;;;;;;;;;;;;;5031839;28;19920;-61
2021/04/11 12:24:11;;;;;;;;;;;;;;;;;;5031713;28;19913;-63
2021/04/11 12:26:40;;;;;;;;;;;;;;;;;;5032386;28;20440;-64
2021/04/11 12:29:06;;;;;;;;;;;;;;;;;;5027877;28;19955;-67
2021/04/11 12:31:32;;;;;;;;;;;;;;;;;;5042443;28;19958;-67
2021/04/11 12:33:58;;;;;;;;;;;;;;;;;;5048245;28;19952;-64
2021/04/11 12:36:24;;;;;;;;;;;;;;;;;;5051437;28;19992;-65
2021/04/11 12:38:50;;;;;;;;;;;;;;;;;;5046188;28;19915;-66
2021/04/11 12:41:17;;;;;;;;;;;;;;;;;;5049077;28;19912;-68
2021/04/11 12:43:43;;;;;;;;;;;;;;;;;;5050716;28;19920;-66
2021/04/11 12:46:09;;;;;;;;;;;;;;;;;;5019603;28;19905;-68
2021/04/11 12:48:35;;;;;;;;;;;;;;;;;;5049267;28;19909;-70
2021/04/11 12:51:01;;;;;;;;;;;;;;;;;;5036061;28;19924;-66
2021/04/11 12:53:27;;;;;;;;;;;;;;;;;;5049835;28;19904;-67
2021/04/11 12:55:53;;;;;;;;;;;;;;;;;;5050380;28;19905;-66
2021/04/11 12:58:19;;;;;;;;;;;;;;;;;;5051358;28;19911;-68
2021/04/11 13:00:45;;;;;;;;;;;;;;;;;;5055087;28;19923;-69
2021/04/11 13:03:11;;;;;;;;;;;;;;;;;;5049410;28;19913;-68
2021/04/11 13:05:37;;;;;;;;;;;;;;;;;;5044486;28;19920;-68
2021/04/11 13:08:03;;;;;;;;;;;;;;;;;;5047806;28;19904;-70
2021/04/11 13:10:28;;;;;;;;;;;;;;;;;;5054880;28;20343;-68
2021/04/11 13:12:54;;;;;;;;;;;;;;;;;;5055280;28;19905;-67
2021/04/11 13:15:20;;;;;;;;;;;;;;;;;;5040656;28;19999;-67
2021/04/11 13:17:46;;;;;;;;;;;;;;;;;;5055331;28;19988;-67
2021/04/11 13:20:12;;;;;;;;;;;;;;;;;;5054990;28;20355;-68
2021/04/11 13:22:38;;;;;;;;;;;;;;;;;;5040853;28;19904;-70
2021/04/11 13:25:04;;;;;;;;;;;;;;;;;;5044915;28;19912;-67
2021/04/11 13:27:30;;;;;;;;;;;;;;;;;;5051573;28;20270;-67
2021/04/11 13:29:56;;;;;;;;;;;;;;;;;;5036836;28;19905;-67
2021/04/11 13:32:22;;;;;;;;;;;;;;;;;;5054164;28;19912;-67
2021/04/11 13:34:48;;;;;;;;;;;;;;;;;;5054751;28;19904;-66
2021/04/11 13:37:14;;;;;;;;;;;;;;;;;;5054649;28;19913;-67
2021/04/11 13:39:40;;;;;;;;;;;;;;;;;;5051013;28;19916;-65
2021/04/11 13:42:06;;;;;;;;;;;;;;;;;;5044536;28;19908;-65
2021/04/11 13:44:32;;;;;;;;;;;;;;;;;;5052229;28;20305;-67
2021/04/11 13:46:58;;;;;;;;;;;;;;;;;;5042853;28;19911;-65
2021/04/11 13:49:23;;;;;;;;;;;;;;;;;;5053903;28;19921;-66
2021/04/11 13:51:49;;;;;;;;;;;;;;;;;;5054783;28;19920;-64
2021/04/11 13:54:15;;;;;;;;;;;;;;;;;;5054589;28;19908;-64
2021/04/11 13:56:41;;;;;;;;;;;;;;;;;;5054481;28;19916;-66
2021/04/11 13:59:07;;;;;;;;;;;;;;;;;;5054002;28;19927;-66
2021/04/11 14:01:33;;;;;;;;;;;;;;;;;;5054577;28;19928;-66
2021/04/11 14:03:59;;;;;;;;;;;;;;;;;;5053922;28;19913;-65
2021/04/11 14:06:25;;;;;;;;;;;;;;;;;;5052945;28;19904;-66
2021/04/11 14:08:51;;;;;;;;;;;;;;;;;;5053751;28;19912;-65
2021/04/11 14:11:18;;;;;;;;;;;;;;;;;;5054355;28;19911;-65
2021/04/11 14:13:44;;;;;;;;;;;;;;;;;;5053756;28;20394;-66
2021/04/11 14:16:10;;;;;;;;;;;;;;;;;;5054114;28;19916;-66
2021/04/11 14:18:36;;;;;;;;;;;;;;;;;;5053389;28;19904;-67
2021/04/11 14:21:01;;;;;;;;;;;;;;;;;;5054132;28;20358;-64
2021/04/11 14:23:27;;;;;;;;;;;;;;;;;;5053624;28;20282;-64
2021/04/11 14:25:53;;;;;;;;;;;;;;;;;;5046556;28;19905;-64
2021/04/11 14:28:19;;;;;;;;;;;;;;;;;;5047257;28;19911;-64
2021/04/11 14:30:46;;;;;;;;;;;;;;;;;;5053569;28;19908;-65
2021/04/11 14:33:11;;;;;;;;;;;;;;;;;;5054119;28;20369;-69
2021/04/11 14:35:37;;;;;;;;;;;;;;;;;;5053542;28;19904;-68
2021/04/11 14:38:03;;;;;;;;;;;;;;;;;;5053790;28;19991;-66
2021/04/11 14:40:29;;;;;;;;;;;;;;;;;;5053291;28;19912;-72
2021/04/11 14:42:55;;;;;;;;;;;;;;;;;;5047022;28;19909;-65
2021/04/11 14:45:21;;;;;;;;;;;;;;;;;;5046500;28;20274;-69
2021/04/11 14:47:47;;;;;;;;;;;;;;;;;;5053614;28;20266;-71
2021/04/11 14:50:13;;;;;;;;;;;;;;;;;;5053222;28;19928;-68
2021/04/11 14:52:39;;;;;;;;;;;;;;;;;;5053547;28;19913;-67
2021/04/11 14:55:05;;;;;;;;;;;;;;;;;;5053453;28;20343;-67
2021/04/11 14:57:31;;;;;;;;;;;;;;;;;;5052928;28;19915;-69
2021/04/11 14:59:57;;;;;;;;;;;;;;;;;;5053308;28;19912;-68
2021/04/11 15:02:23;;;;;;;;;;;;;;;;;;5053387;28;19904;-67
2021/04/11 15:04:49;;;;;;;;;;;;;;;;;;5048292;28;19912;-65
2021/04/11 15:07:14;;;;;;;;;;;;;;;;;;5044215;28;19905;-67
2021/04/11 15:09:40;;;;;;;;;;;;;;;;;;5043974;28;20327;-69
2021/04/11 15:12:06;;;;;;;;;;;;;;;;;;5052752;28;20398;-72
2021/04/11 15:14:32;;;;;;;;;;;;;;;;;;5056816;28;20369;-74
2021/04/11 15:16:58;;;;;;;;;;;;;;;;;;5036080;28;20414;-75
2021/04/11 15:19:24;;;;;;;;;;;;;;;;;;5054500;28;19913;-67
2021/04/11 15:21:50;;;;;;;;;;;;;;;;;;5054746;28;19908;-68
2021/04/11 15:24:16;;;;;;;;;;;;;;;;;;5058766;28;19916;-66
2021/04/11 15:26:42;;;;;;;;;;;;;;;;;;5054263;28;19905;-68
2021/04/11 15:29:08;;;;;;;;;;;;;;;;;;5035492;28;20341;-67
2021/04/11 15:31:34;;;;;;;;;;;;;;;;;;5049675;28;19912;-67
2021/04/11 15:33:59;;;;;;;;;;;;;;;;;;5052864;28;19909;-66
2021/04/11 15:36:25;;;;;;;;;;;;;;;;;;5040442;28;19909;-69
2021/04/11 15:38:51;;;;;;;;;;;;;;;;;;5036853;28;19909;-68
2021/04/11 15:41:17;;;;;;;;;;;;;;;;;;5042202;28;19920;-68
2021/04/11 15:43:43;;;;;;;;;;;;;;;;;;5049062;28;20278;-71
2021/04/11 15:46:09;;;;;;;;;;;;;;;;;;5053247;28;20385;-66
2021/04/11 15:48:35;;;;;;;;;;;;;;;;;;5038203;28;19905;-65
2021/04/11 15:51:01;;;;;;;;;;;;;;;;;;5038636;28;19916;-66
2021/04/11 15:53:27;;;;;;;;;;;;;;;;;;5053968;28;19904;-70
2021/04/11 15:55:53;;;;;;;;;;;;;;;;;;5036219;28;19905;-66
2021/04/11 15:58:19;;;;;;;;;;;;;;;;;;5042858;28;19905;-67
2021/04/11 16:00:45;;;;;;;;;;;;;;;;;;5052038;28;19912;-66
2021/04/11 16:03:11;;;;;;;;;;;;;;;;;;5052573;28;20007;-66
2021/04/11 16:05:36;;;;;;;;;;;;;;;;;;5052161;28;19952;-66
2021/04/11 16:08:02;;;;;;;;;;;;;;;;;;5052443;28;20363;-65
2021/04/11 16:10:28;;;;;;;;;;;;;;;;;;5052074;28;19948;-63
2021/04/11 16:12:55;;;;;;;;;;;;;;;;;;5052402;28;20386;-65
2021/04/11 16:15:20;;;;;;;;;;;;;;;;;;5047611;28;19928;-64
2021/04/11 16:17:46;;;;;;;;;;;;;;;;;;5048542;28;19991;-67
2021/04/11 16:20:12;;;;;;;;;;;;;;;;;;5052028;28;19920;-67
2021/04/11 16:22:38;;;;;;;;;;;;;;;;;;5038856;28;19958;-69
2021/04/11 16:25:04;;;;;;;;;;;;;;;;;;5039021;28;19913;-67
2021/04/11 16:27:30;;;;;;;;;;;;;;;;;;5058436;28;19916;-65
2021/04/11 16:29:56;;;;;;;;;;;;;;;;;;5055985;28;19912;-66
2021/04/11 16:32:22;;;;;;;;;;;;;;;;;;5056101;28;19908;-65
2021/04/11 16:34:48;;;;;;;;;;;;;;;;;;5056193;28;19904;-64
2021/04/11 16:37:14;;;;;;;;;;;;;;;;;;5055921;28;20374;-64